sensor_id;sensor_type;location;lat;lon;timestamp;P1;durP1;ratioP1;P2;durP2;ratioP2
53521;SDS011;39398;48.382;9.802;2023-02-01T00:03:58;7.45;;;4.10;;
53521;SDS011;39398;48.382;9.802;2023-02-01T00:08:59;5.75;;;4.03;;
53521;SDS011;39398;48.382;9.802;2023-02-01T00:14:03;5.30;;;3.65;;
53521;SDS011;39398;48.382;9.802;2023-02-01T00:19:06;6.43;;;3.78;;
53521;SDS011;39398;48.382;9.802;2023-02-01T00:24:10;7.43;;;3.97;;
53521;SDS011;39398;48.382;9.802;2023-02-01T00:29:14;6.20;;;4.00;;
53521;SDS011;39398;48.382;9.802;2023-02-01T00:34:18;6.22;;;4.05;;
53521;SDS011;39398;48.382;9.802;2023-02-01T00:39:19;4.15;;;3.50;;
53521;SDS011;39398;48.382;9.802;2023-02-01T00:44:22;4.88;;;3.35;;
53521;SDS011;39398;48.382;9.802;2023-02-01T00:49:24;4.72;;;2.92;;
53521;SDS011;39398;48.382;9.802;2023-02-01T00:54:26;7.45;;;3.78;;
53521;SDS011;39398;48.382;9.802;2023-02-01T00:59:29;7.55;;;3.55;;
53521;SDS011;39398;48.382;9.802;2023-02-01T01:04:30;4.65;;;3.20;;
53521;SDS011;39398;48.382;9.802;2023-02-01T01:09:32;4.43;;;2.83;;
53521;SDS011;39398;48.382;9.802;2023-02-01T01:14:35;3.17;;;2.85;;
53521;SDS011;39398;48.382;9.802;2023-02-01T01:19:36;3.47;;;2.63;;
53521;SDS011;39398;48.382;9.802;2023-02-01T01:24:38;5.47;;;3.30;;
53521;SDS011;39398;48.382;9.802;2023-02-01T01:29:40;4.78;;;2.80;;
53521;SDS011;39398;48.382;9.802;2023-02-01T01:34:42;3.83;;;2.80;;
53521;SDS011;39398;48.382;9.802;2023-02-01T01:39:44;4.53;;;2.78;;
53521;SDS011;39398;48.382;9.802;2023-02-01T01:50:21;5.25;;;2.80;;
53521;SDS011;39398;48.382;9.802;2023-02-01T01:55:26;3.95;;;2.60;;
53521;SDS011;39398;48.382;9.802;2023-02-01T02:00:33;4.28;;;1.92;;
53521;SDS011;39398;48.382;9.802;2023-02-01T02:05:36;4.88;;;2.80;;
53521;SDS011;39398;48.382;9.802;2023-02-01T02:10:37;2.20;;;1.98;;
53521;SDS011;39398;48.382;9.802;2023-02-01T02:15:42;3.70;;;2.00;;
53521;SDS011;39398;48.382;9.802;2023-02-01T02:20:59;2.60;;;2.05;;
53521;SDS011;39398;48.382;9.802;2023-02-01T02:26:21;3.90;;;2.20;;
53521;SDS011;39398;48.382;9.802;2023-02-01T02:31:46;4.37;;;3.27;;
53521;SDS011;39398;48.382;9.802;2023-02-01T02:37:04;5.97;;;3.35;;
53521;SDS011;39398;48.382;9.802;2023-02-01T02:42:16;6.95;;;3.55;;
53521;SDS011;39398;48.382;9.802;2023-02-01T02:47:26;5.53;;;4.05;;
53521;SDS011;39398;48.382;9.802;2023-02-01T02:52:36;8.57;;;4.32;;
53521;SDS011;39398;48.382;9.802;2023-02-01T02:57:43;7.20;;;4.80;;
53521;SDS011;39398;48.382;9.802;2023-02-01T03:02:46;6.10;;;4.53;;
53521;SDS011;39398;48.382;9.802;2023-02-01T03:07:52;7.25;;;4.70;;
53521;SDS011;39398;48.382;9.802;2023-02-01T03:13:00;5.90;;;3.92;;
53521;SDS011;39398;48.382;9.802;2023-02-01T03:18:05;7.03;;;4.50;;
53521;SDS011;39398;48.382;9.802;2023-02-01T03:23:14;8.77;;;5.45;;
53521;SDS011;39398;48.382;9.802;2023-02-01T03:28:19;7.30;;;5.22;;
53521;SDS011;39398;48.382;9.802;2023-02-01T03:33:24;8.82;;;5.68;;
53521;SDS011;39398;48.382;9.802;2023-02-01T03:38:30;8.02;;;5.90;;
53521;SDS011;39398;48.382;9.802;2023-02-01T03:43:41;10.48;;;7.28;;
53521;SDS011;39398;48.382;9.802;2023-02-01T03:48:50;11.27;;;7.45;;
53521;SDS011;39398;48.382;9.802;2023-02-01T03:53:55;10.95;;;7.32;;
53521;SDS011;39398;48.382;9.802;2023-02-01T03:58:58;9.20;;;6.57;;
53521;SDS011;39398;48.382;9.802;2023-02-01T04:03:59;12.15;;;7.70;;
53521;SDS011;39398;48.382;9.802;2023-02-01T04:09:02;10.98;;;7.50;;
53521;SDS011;39398;48.382;9.802;2023-02-01T04:14:04;13.07;;;7.95;;
53521;SDS011;39398;48.382;9.802;2023-02-01T04:19:06;11.52;;;7.57;;
53521;SDS011;39398;48.382;9.802;2023-02-01T04:24:09;9.35;;;6.30;;
53521;SDS011;39398;48.382;9.802;2023-02-01T04:29:11;12.40;;;7.28;;
53521;SDS011;39398;48.382;9.802;2023-02-01T04:34:12;9.52;;;6.32;;
53521;SDS011;39398;48.382;9.802;2023-02-01T04:39:15;11.82;;;7.03;;
53521;SDS011;39398;48.382;9.802;2023-02-01T04:44:17;10.10;;;6.82;;
53521;SDS011;39398;48.382;9.802;2023-02-01T04:49:19;9.07;;;5.70;;
53521;SDS011;39398;48.382;9.802;2023-02-01T04:54:22;8.95;;;6.63;;
53521;SDS011;39398;48.382;9.802;2023-02-01T04:59:24;10.90;;;6.28;;
53521;SDS011;39398;48.382;9.802;2023-02-01T05:04:26;9.20;;;6.30;;
53521;SDS011;39398;48.382;9.802;2023-02-01T05:09:29;8.13;;;6.18;;
53521;SDS011;39398;48.382;9.802;2023-02-01T05:14:30;9.38;;;6.18;;
53521;SDS011;39398;48.382;9.802;2023-02-01T05:19:32;11.25;;;6.55;;
53521;SDS011;39398;48.382;9.802;2023-02-01T05:24:35;10.40;;;6.63;;
53521;SDS011;39398;48.382;9.802;2023-02-01T05:29:36;10.27;;;6.35;;
53521;SDS011;39398;48.382;9.802;2023-02-01T05:34:38;11.20;;;6.53;;
53521;SDS011;39398;48.382;9.802;2023-02-01T05:39:41;10.60;;;6.43;;
53521;SDS011;39398;48.382;9.802;2023-02-01T05:44:42;11.10;;;6.85;;
53521;SDS011;39398;48.382;9.802;2023-02-01T05:49:44;9.60;;;6.43;;
53521;SDS011;39398;48.382;9.802;2023-02-01T05:54:47;8.88;;;6.57;;
53521;SDS011;39398;48.382;9.802;2023-02-01T05:59:49;13.95;;;9.27;;
53521;SDS011;39398;48.382;9.802;2023-02-01T06:04:50;9.32;;;6.78;;
53521;SDS011;39398;48.382;9.802;2023-02-01T06:09:54;9.30;;;6.38;;
53521;SDS011;39398;48.382;9.802;2023-02-01T06:14:55;10.23;;;6.32;;
53521;SDS011;39398;48.382;9.802;2023-02-01T06:19:57;9.30;;;6.00;;
53521;SDS011;39398;48.382;9.802;2023-02-01T06:24:59;8.90;;;5.85;;
53521;SDS011;39398;48.382;9.802;2023-02-01T06:30:01;8.23;;;6.00;;
53521;SDS011;39398;48.382;9.802;2023-02-01T06:35:04;12.75;;;8.82;;
53521;SDS011;39398;48.382;9.802;2023-02-01T06:40:09;7.05;;;5.55;;
53521;SDS011;39398;48.382;9.802;2023-02-01T06:45:11;10.95;;;5.72;;
53521;SDS011;39398;48.382;9.802;2023-02-01T06:50:12;7.97;;;5.50;;
53521;SDS011;39398;48.382;9.802;2023-02-01T06:55:15;8.40;;;5.30;;
53521;SDS011;39398;48.382;9.802;2023-02-01T07:00:17;9.52;;;5.43;;
53521;SDS011;39398;48.382;9.802;2023-02-01T07:05:19;5.70;;;4.20;;
53521;SDS011;39398;48.382;9.802;2023-02-01T07:10:22;7.57;;;4.15;;
53521;SDS011;39398;48.382;9.802;2023-02-01T07:15:24;5.53;;;4.30;;
53521;SDS011;39398;48.382;9.802;2023-02-01T07:20:26;14.05;;;8.77;;
53521;SDS011;39398;48.382;9.802;2023-02-01T07:25:29;7.10;;;4.75;;
53521;SDS011;39398;48.382;9.802;2023-02-01T07:30:30;7.35;;;5.13;;
53521;SDS011;39398;48.382;9.802;2023-02-01T07:35:32;7.38;;;5.15;;
53521;SDS011;39398;48.382;9.802;2023-02-01T07:40:35;9.93;;;5.00;;
53521;SDS011;39398;48.382;9.802;2023-02-01T07:45:36;7.43;;;4.82;;
53521;SDS011;39398;48.382;9.802;2023-02-01T07:50:38;6.95;;;4.78;;
53521;SDS011;39398;48.382;9.802;2023-02-01T07:55:41;7.70;;;4.43;;
53521;SDS011;39398;48.382;9.802;2023-02-01T08:00:43;9.05;;;6.30;;
53521;SDS011;39398;48.382;9.802;2023-02-01T08:05:44;7.35;;;5.05;;
53521;SDS011;39398;48.382;9.802;2023-02-01T08:10:47;8.02;;;4.93;;
53521;SDS011;39398;48.382;9.802;2023-02-01T08:15:49;8.48;;;4.40;;
53521;SDS011;39398;48.382;9.802;2023-02-01T08:20:50;6.32;;;4.57;;
53521;SDS011;39398;48.382;9.802;2023-02-01T08:25:53;6.38;;;4.50;;
53521;SDS011;39398;48.382;9.802;2023-02-01T08:30:54;11.57;;;7.43;;
53521;SDS011;39398;48.382;9.802;2023-02-01T08:35:56;5.57;;;4.28;;
53521;SDS011;39398;48.382;9.802;2023-02-01T08:41:02;7.05;;;4.70;;
53521;SDS011;39398;48.382;9.802;2023-02-01T08:46:06;7.45;;;4.68;;
53521;SDS011;39398;48.382;9.802;2023-02-01T08:51:08;5.53;;;4.25;;
53521;SDS011;39398;48.382;9.802;2023-02-01T08:56:14;7.07;;;4.63;;
53521;SDS011;39398;48.382;9.802;2023-02-01T09:01:17;5.75;;;4.28;;
53521;SDS011;39398;48.382;9.802;2023-02-01T09:06:19;15.00;;;9.18;;
53521;SDS011;39398;48.382;9.802;2023-02-01T09:11:22;6.40;;;4.78;;
53521;SDS011;39398;48.382;9.802;2023-02-01T09:16:23;5.75;;;3.70;;
53521;SDS011;39398;48.382;9.802;2023-02-01T09:21:26;6.00;;;3.83;;
53521;SDS011;39398;48.382;9.802;2023-02-01T09:26:29;5.72;;;4.35;;
53521;SDS011;39398;48.382;9.802;2023-02-01T09:31:33;6.70;;;4.38;;
53521;SDS011;39398;48.382;9.802;2023-02-01T09:36:34;4.22;;;2.72;;
53521;SDS011;39398;48.382;9.802;2023-02-01T09:41:41;3.03;;;2.47;;
53521;SDS011;39398;48.382;9.802;2023-02-01T09:46:49;6.45;;;2.95;;
53521;SDS011;39398;48.382;9.802;2023-02-01T09:51:55;5.88;;;3.33;;
53521;SDS011;39398;48.382;9.802;2023-02-01T09:57:00;24.23;;;9.07;;
53521;SDS011;39398;48.382;9.802;2023-02-01T10:02:11;7.03;;;5.40;;
53521;SDS011;39398;48.382;9.802;2023-02-01T10:07:20;12.65;;;8.07;;
53521;SDS011;39398;48.382;9.802;2023-02-01T10:12:36;7.10;;;5.05;;
53521;SDS011;39398;48.382;9.802;2023-02-01T10:17:58;7.15;;;4.85;;
53521;SDS011;39398;48.382;9.802;2023-02-01T10:28:38;6.57;;;4.97;;
53521;SDS011;39398;48.382;9.802;2023-02-01T10:33:42;8.13;;;5.22;;
53521;SDS011;39398;48.382;9.802;2023-02-01T10:38:46;8.20;;;4.00;;
53521;SDS011;39398;48.382;9.802;2023-02-01T10:43:49;7.07;;;2.90;;
53521;SDS011;39398;48.382;9.802;2023-02-01T10:48:55;4.63;;;2.42;;
53521;SDS011;39398;48.382;9.802;2023-02-01T10:53:58;5.13;;;2.42;;
53521;SDS011;39398;48.382;9.802;2023-02-01T10:59:06;8.07;;;2.00;;
53521;SDS011;39398;48.382;9.802;2023-02-01T11:04:15;11.18;;;2.50;;
53521;SDS011;39398;48.382;9.802;2023-02-01T11:09:19;5.50;;;2.70;;
53521;SDS011;39398;48.382;9.802;2023-02-01T11:14:30;8.43;;;3.65;;
53521;SDS011;39398;48.382;9.802;2023-02-01T11:19:36;9.38;;;1.95;;
53521;SDS011;39398;48.382;9.802;2023-02-01T11:24:37;5.10;;;1.65;;
53521;SDS011;39398;48.382;9.802;2023-02-01T11:29:43;4.97;;;1.80;;
53521;SDS011;39398;48.382;9.802;2023-02-01T11:34:48;6.78;;;1.90;;
53521;SDS011;39398;48.382;9.802;2023-02-01T11:39:53;13.18;;;2.35;;
53521;SDS011;39398;48.382;9.802;2023-02-01T11:50:24;3.70;;;1.48;;
53521;SDS011;39398;48.382;9.802;2023-02-01T11:55:47;5.78;;;1.90;;
53521;SDS011;39398;48.382;9.802;2023-02-01T12:01:05;9.10;;;1.90;;
53521;SDS011;39398;48.382;9.802;2023-02-01T12:06:15;7.07;;;1.63;;
53521;SDS011;39398;48.382;9.802;2023-02-01T12:11:38;10.38;;;2.45;;
53521;SDS011;39398;48.382;9.802;2023-02-01T12:16:55;3.37;;;1.80;;
53521;SDS011;39398;48.382;9.802;2023-02-01T12:22:11;12.20;;;2.40;;
53521;SDS011;39398;48.382;9.802;2023-02-01T12:33:00;5.55;;;1.73;;
53521;SDS011;39398;48.382;9.802;2023-02-01T12:38:13;6.97;;;1.92;;
53521;SDS011;39398;48.382;9.802;2023-02-01T12:43:36;5.95;;;2.13;;
53521;SDS011;39398;48.382;9.802;2023-02-01T12:48:46;4.03;;;1.70;;
53521;SDS011;39398;48.382;9.802;2023-02-01T12:53:57;3.22;;;1.38;;
53521;SDS011;39398;48.382;9.802;2023-02-01T12:59:05;5.47;;;2.05;;
53521;SDS011;39398;48.382;9.802;2023-02-01T13:04:20;2.90;;;1.25;;
53521;SDS011;39398;48.382;9.802;2023-02-01T13:09:29;3.35;;;1.42;;
53521;SDS011;39398;48.382;9.802;2023-02-01T13:14:37;6.20;;;2.03;;
53521;SDS011;39398;48.382;9.802;2023-02-01T13:19:46;3.17;;;1.40;;
53521;SDS011;39398;48.382;9.802;2023-02-01T13:24:51;8.40;;;1.60;;
53521;SDS011;39398;48.382;9.802;2023-02-01T13:29:57;2.00;;;1.25;;
53521;SDS011;39398;48.382;9.802;2023-02-01T13:35:18;4.97;;;1.90;;
53521;SDS011;39398;48.382;9.802;2023-02-01T13:40:51;3.35;;;1.60;;
53521;SDS011;39398;48.382;9.802;2023-02-01T13:46:06;8.98;;;1.80;;
53521;SDS011;39398;48.382;9.802;2023-02-01T13:51:11;7.75;;;1.88;;
53521;SDS011;39398;48.382;9.802;2023-02-01T13:56:15;7.82;;;2.35;;
53521;SDS011;39398;48.382;9.802;2023-02-01T14:06:42;5.28;;;2.05;;
53521;SDS011;39398;48.382;9.802;2023-02-01T14:11:46;8.80;;;2.13;;
53521;SDS011;39398;48.382;9.802;2023-02-01T14:22:32;9.38;;;2.17;;
53521;SDS011;39398;48.382;9.802;2023-02-01T14:27:35;7.13;;;2.15;;
53521;SDS011;39398;48.382;9.802;2023-02-01T14:32:37;2.65;;;1.55;;
53521;SDS011;39398;48.382;9.802;2023-02-01T14:37:42;9.32;;;1.98;;
53521;SDS011;39398;48.382;9.802;2023-02-01T14:42:46;7.18;;;1.52;;
53521;SDS011;39398;48.382;9.802;2023-02-01T14:47:49;5.22;;;1.80;;
53521;SDS011;39398;48.382;9.802;2023-02-01T14:53:01;6.75;;;2.10;;
53521;SDS011;39398;48.382;9.802;2023-02-01T14:58:14;3.30;;;2.30;;
53521;SDS011;39398;48.382;9.802;2023-02-01T15:03:25;6.00;;;2.25;;
53521;SDS011;39398;48.382;9.802;2023-02-01T15:08:42;4.95;;;2.00;;
53521;SDS011;39398;48.382;9.802;2023-02-01T15:13:47;6.32;;;2.50;;
53521;SDS011;39398;48.382;9.802;2023-02-01T15:19:06;7.43;;;2.30;;
53521;SDS011;39398;48.382;9.802;2023-02-01T15:24:12;4.57;;;1.88;;
53521;SDS011;39398;48.382;9.802;2023-02-01T15:29:14;5.70;;;1.88;;
53521;SDS011;39398;48.382;9.802;2023-02-01T15:34:16;7.68;;;2.45;;
53521;SDS011;39398;48.382;9.802;2023-02-01T15:39:21;8.80;;;2.60;;
53521;SDS011;39398;48.382;9.802;2023-02-01T15:44:28;6.10;;;2.00;;
53521;SDS011;39398;48.382;9.802;2023-02-01T15:49:36;6.05;;;2.00;;
53521;SDS011;39398;48.382;9.802;2023-02-01T15:54:43;4.22;;;1.70;;
53521;SDS011;39398;48.382;9.802;2023-02-01T15:59:48;6.32;;;2.40;;
53521;SDS011;39398;48.382;9.802;2023-02-01T16:04:50;15.38;;;4.03;;
53521;SDS011;39398;48.382;9.802;2023-02-01T16:09:55;8.50;;;2.05;;
53521;SDS011;39398;48.382;9.802;2023-02-01T16:14:58;6.85;;;1.80;;
53521;SDS011;39398;48.382;9.802;2023-02-01T16:20:00;6.53;;;2.03;;
53521;SDS011;39398;48.382;9.802;2023-02-01T16:25:03;7.90;;;2.15;;
53521;SDS011;39398;48.382;9.802;2023-02-01T16:30:05;17.35;;;2.67;;
53521;SDS011;39398;48.382;9.802;2023-02-01T16:35:10;9.02;;;2.25;;
53521;SDS011;39398;48.382;9.802;2023-02-01T16:40:18;10.90;;;1.95;;
53521;SDS011;39398;48.382;9.802;2023-02-01T16:45:21;15.85;;;3.33;;
53521;SDS011;39398;48.382;9.802;2023-02-01T16:50:24;14.73;;;3.13;;
53521;SDS011;39398;48.382;9.802;2023-02-01T16:55:28;13.20;;;2.83;;
53521;SDS011;39398;48.382;9.802;2023-02-01T17:00:29;5.38;;;1.88;;
53521;SDS011;39398;48.382;9.802;2023-02-01T17:05:31;11.02;;;2.58;;
53521;SDS011;39398;48.382;9.802;2023-02-01T17:10:35;8.48;;;2.10;;
53521;SDS011;39398;48.382;9.802;2023-02-01T17:15:49;6.82;;;2.50;;
53521;SDS011;39398;48.382;9.802;2023-02-01T17:20:54;14.05;;;3.10;;
53521;SDS011;39398;48.382;9.802;2023-02-01T17:25:57;7.25;;;2.50;;
53521;SDS011;39398;48.382;9.802;2023-02-01T17:30:59;17.38;;;3.65;;
53521;SDS011;39398;48.382;9.802;2023-02-01T17:36:02;15.38;;;2.80;;
53521;SDS011;39398;48.382;9.802;2023-02-01T17:41:08;10.15;;;2.88;;
53521;SDS011;39398;48.382;9.802;2023-02-01T17:46:11;7.82;;;2.75;;
53521;SDS011;39398;48.382;9.802;2023-02-01T17:51:15;8.60;;;1.90;;
53521;SDS011;39398;48.382;9.802;2023-02-01T17:56:20;6.72;;;1.85;;
53521;SDS011;39398;48.382;9.802;2023-02-01T18:01:23;15.07;;;3.63;;
53521;SDS011;39398;48.382;9.802;2023-02-01T18:06:25;10.85;;;3.40;;
53521;SDS011;39398;48.382;9.802;2023-02-01T18:11:28;6.03;;;2.53;;
53521;SDS011;39398;48.382;9.802;2023-02-01T18:16:31;6.63;;;2.42;;
53521;SDS011;39398;48.382;9.802;2023-02-01T18:21:34;16.88;;;2.97;;
53521;SDS011;39398;48.382;9.802;2023-02-01T18:26:39;14.05;;;2.97;;
53521;SDS011;39398;48.382;9.802;2023-02-01T18:31:43;7.68;;;2.42;;
53521;SDS011;39398;48.382;9.802;2023-02-01T18:36:47;7.57;;;2.33;;
53521;SDS011;39398;48.382;9.802;2023-02-01T18:41:50;7.35;;;2.25;;
53521;SDS011;39398;48.382;9.802;2023-02-01T18:46:51;4.88;;;1.88;;
53521;SDS011;39398;48.382;9.802;2023-02-01T18:51:53;10.25;;;2.92;;
53521;SDS011;39398;48.382;9.802;2023-02-01T18:56:56;5.75;;;2.10;;
53521;SDS011;39398;48.382;9.802;2023-02-01T19:01:57;12.30;;;2.65;;
53521;SDS011;39398;48.382;9.802;2023-02-01T19:06:59;6.88;;;2.67;;
53521;SDS011;39398;48.382;9.802;2023-02-01T19:12:03;5.53;;;2.67;;
53521;SDS011;39398;48.382;9.802;2023-02-01T19:17:05;5.72;;;2.08;;
53521;SDS011;39398;48.382;9.802;2023-02-01T19:22:06;6.28;;;2.20;;
53521;SDS011;39398;48.382;9.802;2023-02-01T19:27:09;10.95;;;1.90;;
53521;SDS011;39398;48.382;9.802;2023-02-01T19:32:11;9.05;;;2.17;;
53521;SDS011;39398;48.382;9.802;2023-02-01T19:37:13;4.75;;;2.10;;
53521;SDS011;39398;48.382;9.802;2023-02-01T19:42:16;7.68;;;1.70;;
53521;SDS011;39398;48.382;9.802;2023-02-01T19:47:18;8.27;;;2.03;;
53521;SDS011;39398;48.382;9.802;2023-02-01T19:52:20;6.05;;;2.10;;
53521;SDS011;39398;48.382;9.802;2023-02-01T19:57:23;4.82;;;2.22;;
53521;SDS011;39398;48.382;9.802;2023-02-01T20:02:24;8.65;;;1.85;;
53521;SDS011;39398;48.382;9.802;2023-02-01T20:07:26;8.50;;;1.80;;
53521;SDS011;39398;48.382;9.802;2023-02-01T20:12:29;3.58;;;1.88;;
53521;SDS011;39398;48.382;9.802;2023-02-01T20:17:31;6.07;;;1.95;;
53521;SDS011;39398;48.382;9.802;2023-02-01T20:22:32;10.50;;;2.00;;
53521;SDS011;39398;48.382;9.802;2023-02-01T20:27:35;8.20;;;2.03;;
53521;SDS011;39398;48.382;9.802;2023-02-01T20:32:38;8.07;;;2.25;;
53521;SDS011;39398;48.382;9.802;2023-02-01T20:37:39;5.13;;;2.03;;
53521;SDS011;39398;48.382;9.802;2023-02-01T20:42:42;8.38;;;1.90;;
53521;SDS011;39398;48.382;9.802;2023-02-01T20:47:47;11.38;;;2.22;;
53521;SDS011;39398;48.382;9.802;2023-02-01T20:52:49;9.10;;;2.35;;
53521;SDS011;39398;48.382;9.802;2023-02-01T20:57:52;10.63;;;2.17;;
53521;SDS011;39398;48.382;9.802;2023-02-01T21:02:53;10.35;;;2.92;;
53521;SDS011;39398;48.382;9.802;2023-02-01T21:07:55;9.55;;;2.10;;
53521;SDS011;39398;48.382;9.802;2023-02-01T21:12:58;7.13;;;2.00;;
53521;SDS011;39398;48.382;9.802;2023-02-01T21:18:05;7.95;;;2.05;;
53521;SDS011;39398;48.382;9.802;2023-02-01T21:23:07;7.25;;;1.90;;
53521;SDS011;39398;48.382;9.802;2023-02-01T21:28:10;4.47;;;1.80;;
53521;SDS011;39398;48.382;9.802;2023-02-01T21:33:12;3.13;;;1.58;;
53521;SDS011;39398;48.382;9.802;2023-02-01T21:38:14;7.93;;;1.80;;
53521;SDS011;39398;48.382;9.802;2023-02-01T21:43:17;9.52;;;2.08;;
53521;SDS011;39398;48.382;9.802;2023-02-01T21:48:18;3.80;;;1.92;;
53521;SDS011;39398;48.382;9.802;2023-02-01T21:53:20;6.20;;;1.77;;
53521;SDS011;39398;48.382;9.802;2023-02-01T21:58:23;8.18;;;2.20;;
53521;SDS011;39398;48.382;9.802;2023-02-01T22:03:25;3.35;;;1.55;;
53521;SDS011;39398;48.382;9.802;2023-02-01T22:08:26;7.15;;;2.08;;
53521;SDS011;39398;48.382;9.802;2023-02-01T22:13:29;7.43;;;1.77;;
53521;SDS011;39398;48.382;9.802;2023-02-01T22:18:31;13.23;;;2.10;;
53521;SDS011;39398;48.382;9.802;2023-02-01T22:23:32;6.18;;;2.30;;
53521;SDS011;39398;48.382;9.802;2023-02-01T22:28:35;2.70;;;1.55;;
53521;SDS011;39398;48.382;9.802;2023-02-01T22:33:37;9.52;;;2.75;;
53521;SDS011;39398;48.382;9.802;2023-02-01T22:38:39;9.23;;;2.20;;
53521;SDS011;39398;48.382;9.802;2023-02-01T22:43:42;7.30;;;2.10;;
53521;SDS011;39398;48.382;9.802;2023-02-01T22:48:44;9.90;;;2.00;;
53521;SDS011;39398;48.382;9.802;2023-02-01T22:53:47;4.40;;;1.63;;
53521;SDS011;39398;48.382;9.802;2023-02-01T22:58:53;3.55;;;1.45;;
53521;SDS011;39398;48.382;9.802;2023-02-01T23:03:55;9.38;;;2.00;;
53521;SDS011;39398;48.382;9.802;2023-02-01T23:09:00;8.82;;;2.38;;
53521;SDS011;39398;48.382;9.802;2023-02-01T23:14:04;8.02;;;2.42;;
53521;SDS011;39398;48.382;9.802;2023-02-01T23:19:06;6.57;;;2.08;;
53521;SDS011;39398;48.382;9.802;2023-02-01T23:24:08;9.25;;;2.78;;
53521;SDS011;39398;48.382;9.802;2023-02-01T23:29:16;6.65;;;2.10;;
53521;SDS011;39398;48.382;9.802;2023-02-01T23:34:18;9.52;;;2.50;;
53521;SDS011;39398;48.382;9.802;2023-02-01T23:39:19;5.78;;;1.77;;
53521;SDS011;39398;48.382;9.802;2023-02-01T23:44:22;5.15;;;1.77;;
53521;SDS011;39398;48.382;9.802;2023-02-01T23:49:24;9.68;;;1.85;;
53521;SDS011;39398;48.382;9.802;2023-02-01T23:54:25;4.22;;;1.45;;
53521;SDS011;39398;48.382;9.802;2023-02-01T23:59:28;8.90;;;2.28;;
